Time;durP1;ratioP1;P1;durP2;ratioP2;P2;SDS_P1;SDS_P2;PMS_P1;PMS_P2;Temp;Humidity;BMP_temperature;BMP_pressure;BME280_temperature;BME280_humidity;BME280_pressure;Samples;Min_cycle;Max_cycle;Signal;HPM_P1;HPM_P2
2023/12/10 00:00:05;;;;;;;17.52;3.28;;;;;;;;;;5048656;28;20041;-61
2023/12/10 00:02:31;;;;;;;17.50;3.50;;;;;;;;;;5039585;28;20072;-62
2023/12/10 00:04:57;;;;;;;13.10;2.90;;;;;;;;;;5036596;28;20038;-63
2023/12/10 00:07:22;;;;;;;14.07;4.35;;;;;;;;;;5045026;28;20044;-61
2023/12/10 00:09:48;;;;;;;15.02;3.35;;;;;;;;;;5048636;28;20475;-62
2023/12/10 00:12:13;;;;;;;19.23;3.33;;;;;;;;;;5043935;28;20029;-64
2023/12/10 00:14:39;;;;;;;15.80;3.60;;;;;;;;;;5049252;28;20028;-62
2023/12/10 00:17:04;;;;;;;16.90;2.80;;;;;;;;;;5031719;28;20026;-62
2023/12/10 00:19:29;;;;;;;18.13;3.05;;;;;;;;;;5043002;28;20044;-62
2023/12/10 00:21:55;;;;;;;12.38;2.80;;;;;;;;;;5038028;28;20127;-61
2023/12/10 00:24:22;;;;;;;22.58;3.85;;;;;;;;;;5042007;28;20482;-66
2023/12/10 00:26:47;;;;;;;15.95;3.22;;;;;;;;;;5049416;28;20115;-62
2023/12/10 00:29:13;;;;;;;14.52;2.60;;;;;;;;;;5047155;28;21221;-62
2023/12/10 00:31:42;;;;;;;15.68;2.75;;;;;;;;;;5021142;28;20057;-61
2023/12/10 00:34:09;;;;;;;17.85;3.45;;;;;;;;;;5036550;28;20030;-61
2023/12/10 00:36:34;;;;;;;20.20;3.78;;;;;;;;;;5045189;28;21000;-61
2023/12/10 00:39:00;;;;;;;13.52;3.00;;;;;;;;;;5043945;28;20037;-61
2023/12/10 00:41:26;;;;;;;22.30;3.30;;;;;;;;;;5036337;28;20088;-62
2023/12/10 00:43:51;;;;;;;15.45;3.70;;;;;;;;;;5041074;28;20029;-61
2023/12/10 00:46:16;;;;;;;19.00;3.75;;;;;;;;;;5038265;28;20100;-61
2023/12/10 00:48:43;;;;;;;22.70;3.55;;;;;;;;;;5041043;28;20033;-61
2023/12/10 00:51:18;;;;;;;13.38;2.45;;;;;;;;;;5021880;28;20038;-61
2023/12/10 00:53:43;;;;;;;13.20;3.00;;;;;;;;;;5022853;28;20096;-63
2023/12/10 00:56:09;;;;;;;17.23;3.38;;;;;;;;;;5039342;28;20041;-62
2023/12/10 00:58:34;;;;;;;17.75;3.58;;;;;;;;;;5046475;28;20033;-61
2023/12/10 01:00:59;;;;;;;11.95;2.60;;;;;;;;;;5048148;28;20065;-61
2023/12/10 01:03:25;;;;;;;13.73;2.75;;;;;;;;;;5038898;28;20105;-61
2023/12/10 01:05:50;;;;;;;20.85;3.38;;;;;;;;;;5050256;28;20108;-61
2023/12/10 01:08:16;;;;;;;12.75;2.75;;;;;;;;;;5035866;28;20040;-61
2023/12/10 01:10:41;;;;;;;8.60;2.92;;;;;;;;;;5051953;28;20178;-61
2023/12/10 01:13:08;;;;;;;16.65;3.53;;;;;;;;;;5047742;28;20029;-63
2023/12/10 01:15:33;;;;;;;19.58;3.20;;;;;;;;;;5041322;28;20033;-62
2023/12/10 01:18:01;;;;;;;19.38;3.60;;;;;;;;;;5045715;28;20036;-62
2023/12/10 01:20:37;;;;;;;10.45;2.20;;;;;;;;;;5051489;28;20411;-62
2023/12/10 01:23:04;;;;;;;16.98;2.63;;;;;;;;;;5044060;28;20048;-63
2023/12/10 01:25:29;;;;;;;10.75;2.58;;;;;;;;;;5036582;28;20079;-62
2023/12/10 01:27:55;;;;;;;23.45;4.65;;;;;;;;;;5048569;28;20124;-62
2023/12/10 01:30:23;;;;;;;14.93;2.88;;;;;;;;;;5029587;28;20191;-62
2023/12/10 01:32:51;;;;;;;13.45;3.00;;;;;;;;;;5048664;28;20070;-63
2023/12/10 01:35:16;;;;;;;14.77;3.20;;;;;;;;;;5047158;28;20044;-63
2023/12/10 01:37:42;;;;;;;20.48;3.60;;;;;;;;;;5051727;28;20104;-62
2023/12/10 01:40:08;;;;;;;16.60;3.25;;;;;;;;;;5048786;28;20025;-62
2023/12/10 01:42:34;;;;;;;18.23;2.97;;;;;;;;;;5033419;28;20078;-62
2023/12/10 01:45:00;;;;;;;17.80;3.75;;;;;;;;;;5013623;28;20045;-62
2023/12/10 01:47:28;;;;;;;16.00;2.55;;;;;;;;;;5044378;28;20041;-63
2023/12/10 01:49:54;;;;;;;11.70;2.17;;;;;;;;;;5040188;28;20110;-62
2023/12/10 01:52:22;;;;;;;14.00;3.13;;;;;;;;;;5035170;28;20051;-62
2023/12/10 01:54:47;;;;;;;15.73;3.45;;;;;;;;;;5033054;28;20033;-61
2023/12/10 01:57:14;;;;;;;20.77;3.25;;;;;;;;;;5028851;28;20083;-61
2023/12/10 01:59:40;;;;;;;16.55;2.65;;;;;;;;;;5044467;28;20438;-62
2023/12/10 02:02:05;;;;;;;11.85;2.53;;;;;;;;;;5043559;28;20033;-62
2023/12/10 02:04:31;;;;;;;19.73;2.88;;;;;;;;;;5039913;28;20036;-62
2023/12/10 02:06:56;;;;;;;13.40;2.20;;;;;;;;;;5019073;28;20061;-60
2023/12/10 02:09:21;;;;;;;14.30;3.25;;;;;;;;;;5034408;28;20036;-63
2023/12/10 02:11:47;;;;;;;14.55;3.08;;;;;;;;;;5020846;28;20084;-62
2023/12/10 02:14:12;;;;;;;15.63;3.22;;;;;;;;;;5043093;28;20052;-62
2023/12/10 02:16:38;;;;;;;11.98;2.60;;;;;;;;;;5052161;28;20036;-62
2023/12/10 02:19:03;;;;;;;11.77;2.90;;;;;;;;;;5042585;28;20060;-61
2023/12/10 02:21:31;;;;;;;15.68;3.35;;;;;;;;;;5052137;28;20082;-62
2023/12/10 02:24:04;;;;;;;17.73;3.65;;;;;;;;;;5042397;28;20075;-61
2023/12/10 02:26:30;;;;;;;10.70;2.75;;;;;;;;;;5042574;28;20039;-62
2023/12/10 02:28:55;;;;;;;12.75;3.15;;;;;;;;;;5031777;28;20180;-61
2023/12/10 02:31:21;;;;;;;10.55;2.60;;;;;;;;;;5034690;28;20123;-62
2023/12/10 02:33:46;;;;;;;9.15;2.28;;;;;;;;;;5031521;28;20037;-62
2023/12/10 02:36:13;;;;;;;14.85;2.90;;;;;;;;;;5034513;28;20057;-61
2023/12/10 02:38:38;;;;;;;17.00;3.58;;;;;;;;;;5032070;28;20038;-62
2023/12/10 02:41:05;;;;;;;6.40;2.00;;;;;;;;;;5031333;28;20045;-61
2023/12/10 02:43:30;;;;;;;16.73;3.10;;;;;;;;;;5050337;28;20033;-63
2023/12/10 02:45:56;;;;;;;12.18;2.15;;;;;;;;;;5043285;28;20223;-62
2023/12/10 02:48:22;;;;;;;11.80;3.08;;;;;;;;;;5032136;28;20100;-62
2023/12/10 02:50:51;;;;;;;11.65;2.55;;;;;;;;;;5036815;28;20021;-62
2023/12/10 02:53:17;;;;;;;15.35;2.97;;;;;;;;;;5042827;28;20045;-63
2023/12/10 02:55:43;;;;;;;18.83;3.78;;;;;;;;;;5037290;28;20432;-62
2023/12/10 02:58:09;;;;;;;29.45;3.08;;;;;;;;;;5038665;28;20124;-62
2023/12/10 03:00:34;;;;;;;13.45;2.92;;;;;;;;;;5041265;28;20049;-62
2023/12/10 03:03:00;;;;;;;15.77;3.25;;;;;;;;;;5049789;28;20032;-61
2023/12/10 03:05:26;;;;;;;10.27;2.42;;;;;;;;;;5044219;28;20053;-62
2023/12/10 03:07:52;;;;;;;10.20;2.85;;;;;;;;;;5045809;28;20033;-62
2023/12/10 03:10:17;;;;;;;12.55;2.50;;;;;;;;;;5046289;28;20071;-62
2023/12/10 03:12:43;;;;;;;17.27;2.50;;;;;;;;;;5051540;28;20033;-63
2023/12/10 03:15:08;;;;;;;15.63;3.03;;;;;;;;;;5032172;28;20033;-63
2023/12/10 03:17:34;;;;;;;13.65;3.15;;;;;;;;;;5048875;28;20107;-63
2023/12/10 03:19:59;;;;;;;13.18;2.63;;;;;;;;;;5047692;28;20036;-60
2023/12/10 03:22:25;;;;;;;14.07;2.75;;;;;;;;;;5041174;28;20068;-61
2023/12/10 03:24:50;;;;;;;12.00;2.53;;;;;;;;;;5034230;28;20032;-64
2023/12/10 03:27:15;;;;;;;16.25;2.78;;;;;;;;;;5048863;28;20040;-63
2023/12/10 03:29:41;;;;;;;15.63;3.13;;;;;;;;;;5037010;28;20068;-61
2023/12/10 03:32:06;;;;;;;17.23;3.42;;;;;;;;;;5026328;28;20091;-61
2023/12/10 03:34:32;;;;;;;15.95;2.55;;;;;;;;;;5033823;28;20029;-60
2023/12/10 03:36:57;;;;;;;11.95;2.25;;;;;;;;;;5034617;28;20039;-61
2023/12/10 03:39:22;;;;;;;17.58;2.95;;;;;;;;;;5038329;28;20076;-61
2023/12/10 03:41:49;;;;;;;9.13;2.00;;;;;;;;;;5039174;28;20107;-60
2023/12/10 03:44:15;;;;;;;8.90;2.47;;;;;;;;;;5036548;28;20048;-62
2023/12/10 03:46:40;;;;;;;9.93;2.53;;;;;;;;;;5036430;28;20104;-60
2023/12/10 03:49:05;;;;;;;11.60;2.55;;;;;;;;;;5046261;28;20060;-60
2023/12/10 03:51:31;;;;;;;13.52;2.47;;;;;;;;;;5044453;28;20029;-61
2023/12/10 03:53:56;;;;;;;14.52;2.67;;;;;;;;;;5036021;28;20041;-62
2023/12/10 03:56:22;;;;;;;15.82;3.05;;;;;;;;;;5035975;28;20095;-61
2023/12/10 03:58:47;;;;;;;13.65;2.75;;;;;;;;;;5043360;28;20037;-61
2023/12/10 04:01:13;;;;;;;14.88;2.85;;;;;;;;;;5034366;28;20033;-62
2023/12/10 04:03:38;;;;;;;9.68;2.38;;;;;;;;;;5041064;28;20446;-62
2023/12/10 04:06:03;;;;;;;21.20;3.50;;;;;;;;;;5032226;28;20528;-61
2023/12/10 04:08:29;;;;;;;14.75;2.70;;;;;;;;;;5048345;28;20021;-61
2023/12/10 04:10:54;;;;;;;18.30;3.00;;;;;;;;;;5042295;28;20471;-61
2023/12/10 04:13:20;;;;;;;7.78;2.17;;;;;;;;;;5027326;28;20022;-62
2023/12/10 04:15:46;;;;;;;13.43;2.65;;;;;;;;;;5033901;28;20066;-63
2023/12/10 04:18:14;;;;;;;10.25;3.10;;;;;;;;;;5018155;28;20076;-62
2023/12/10 04:20:41;;;;;;;13.98;2.47;;;;;;;;;;5050845;28;20056;-63
2023/12/10 04:23:07;;;;;;;7.50;2.15;;;;;;;;;;5046354;28;20099;-61
2023/12/10 04:25:32;;;;;;;12.95;2.72;;;;;;;;;;5051998;28;20033;-63
2023/12/10 04:27:58;;;;;;;18.23;3.03;;;;;;;;;;5017242;28;20088;-64
2023/12/10 04:30:24;;;;;;;17.17;2.70;;;;;;;;;;5019790;28;20610;-63
2023/12/10 04:32:50;;;;;;;12.25;2.60;;;;;;;;;;5039219;28;20045;-62
2023/12/10 04:35:15;;;;;;;20.80;4.25;;;;;;;;;;5050754;28;20040;-62
2023/12/10 04:37:41;;;;;;;17.13;2.20;;;;;;;;;;5045547;28;20447;-62
2023/12/10 04:40:07;;;;;;;15.50;2.88;;;;;;;;;;5048089;28;20025;-60
2023/12/10 04:42:33;;;;;;;13.90;2.67;;;;;;;;;;5038403;28;20108;-62
2023/12/10 04:44:58;;;;;;;7.88;2.15;;;;;;;;;;5018124;28;20171;-61
2023/12/10 04:47:24;;;;;;;19.23;2.92;;;;;;;;;;5022448;28;20491;-62
2023/12/10 04:49:49;;;;;;;18.48;2.80;;;;;;;;;;5019483;28;20037;-61
2023/12/10 04:52:15;;;;;;;18.98;3.22;;;;;;;;;;5032691;28;20083;-60
2023/12/10 04:54:40;;;;;;;14.65;2.95;;;;;;;;;;5014201;28;20040;-60
2023/12/10 04:57:05;;;;;;;15.30;3.08;;;;;;;;;;5021736;28;20107;-59
2023/12/10 04:59:31;;;;;;;13.75;2.72;;;;;;;;;;5016642;28;20408;-61
2023/12/10 05:01:56;;;;;;;16.70;3.42;;;;;;;;;;5016608;28;20026;-61
2023/12/10 05:04:22;;;;;;;16.25;3.05;;;;;;;;;;5032315;28;20040;-62
2023/12/10 05:06:47;;;;;;;18.27;3.22;;;;;;;;;;5024902;28;20057;-61
2023/12/10 05:09:13;;;;;;;14.60;2.58;;;;;;;;;;5032878;28;20029;-61
2023/12/10 05:11:38;;;;;;;14.90;3.00;;;;;;;;;;5033250;28;20084;-62
2023/12/10 05:14:06;;;;;;;16.55;2.60;;;;;;;;;;5022172;28;20058;-61
2023/12/10 05:16:32;;;;;;;13.98;3.03;;;;;;;;;;5022262;28;20076;-61
2023/12/10 05:18:57;;;;;;;16.85;2.90;;;;;;;;;;5033336;28;20435;-62
2023/12/10 05:21:22;;;;;;;13.25;3.13;;;;;;;;;;5032599;28;20430;-62
2023/12/10 05:23:48;;;;;;;12.85;2.45;;;;;;;;;;5031318;28;20059;-62
2023/12/10 05:26:13;;;;;;;15.40;3.17;;;;;;;;;;5028548;28;20034;-60
2023/12/10 05:28:39;;;;;;;17.23;3.08;;;;;;;;;;5013553;28;20492;-60
2023/12/10 05:31:04;;;;;;;13.63;2.80;;;;;;;;;;5013107;28;20025;-60
2023/12/10 05:33:31;;;;;;;20.52;3.20;;;;;;;;;;5016580;28;20034;-61
2023/12/10 05:35:57;;;;;;;16.20;3.15;;;;;;;;;;5030187;28;20041;-61
2023/12/10 05:38:23;;;;;;;17.27;2.60;;;;;;;;;;5032328;28;20554;-63
2023/12/10 05:40:48;;;;;;;14.50;3.33;;;;;;;;;;5017599;28;20049;-63
2023/12/10 05:43:14;;;;;;;14.57;3.28;;;;;;;;;;5015280;28;20111;-62
2023/12/10 05:45:39;;;;;;;16.85;3.10;;;;;;;;;;5032196;28;20049;-62
2023/12/10 05:48:05;;;;;;;11.07;2.58;;;;;;;;;;5025456;28;20045;-62
2023/12/10 05:50:30;;;;;;;14.27;2.50;;;;;;;;;;5018993;28;20041;-63
2023/12/10 05:52:56;;;;;;;16.30;2.58;;;;;;;;;;5033157;28;20033;-62
2023/12/10 05:55:21;;;;;;;12.02;2.08;;;;;;;;;;5015816;28;20030;-60
2023/12/10 05:57:46;;;;;;;11.30;2.42;;;;;;;;;;5017988;28;20036;-62
2023/12/10 06:00:12;;;;;;;17.42;2.90;;;;;;;;;;5013070;28;20030;-59
2023/12/10 06:02:38;;;;;;;14.10;2.80;;;;;;;;;;5016933;28;20439;-60
2023/12/10 06:05:04;;;;;;;15.10;3.22;;;;;;;;;;5013474;28;20061;-64
2023/12/10 06:07:29;;;;;;;13.32;2.42;;;;;;;;;;5027136;28;20044;-61
2023/12/10 06:09:55;;;;;;;15.15;2.13;;;;;;;;;;5032468;28;20472;-61
2023/12/10 06:12:21;;;;;;;12.73;2.58;;;;;;;;;;5031959;28;20372;-61
2023/12/10 06:14:46;;;;;;;14.93;2.25;;;;;;;;;;5031518;28;20033;-61
2023/12/10 06:17:12;;;;;;;13.93;2.17;;;;;;;;;;5032218;28;20380;-59
2023/12/10 06:19:37;;;;;;;17.92;2.90;;;;;;;;;;5031984;28;20065;-61
2023/12/10 06:22:03;;;;;;;13.90;2.47;;;;;;;;;;5031869;28;20034;-62
2023/12/10 06:24:28;;;;;;;13.55;2.47;;;;;;;;;;5029907;28;20034;-61
2023/12/10 06:26:54;;;;;;;14.15;2.47;;;;;;;;;;5026586;28;20476;-62
2023/12/10 06:29:19;;;;;;;13.55;2.25;;;;;;;;;;5024205;28;20116;-61
2023/12/10 06:31:45;;;;;;;9.45;2.55;;;;;;;;;;5029909;28;20422;-62
2023/12/10 06:34:10;;;;;;;14.82;2.50;;;;;;;;;;5030665;28;20029;-62
2023/12/10 06:36:36;;;;;;;13.95;2.50;;;;;;;;;;5022964;28;20403;-62
2023/12/10 06:39:02;;;;;;;16.08;2.70;;;;;;;;;;5031927;28;20104;-62
2023/12/10 06:41:27;;;;;;;16.63;3.33;;;;;;;;;;5029600;28;20052;-62
2023/12/10 06:43:53;;;;;;;13.52;3.25;;;;;;;;;;5017414;28;20432;-62
2023/12/10 06:46:18;;;;;;;7.88;2.30;;;;;;;;;;5031407;28;20095;-61
2023/12/10 06:48:44;;;;;;;11.65;2.30;;;;;;;;;;5031128;28;20121;-62
2023/12/10 06:51:10;;;;;;;10.55;2.15;;;;;;;;;;5016320;28;20040;-62
2023/12/10 06:53:36;;;;;;;8.05;2.20;;;;;;;;;;5011730;28;20076;-62
2023/12/10 06:56:01;;;;;;;13.48;2.80;;;;;;;;;;5012933;28;20033;-62
2023/12/10 06:58:27;;;;;;;9.90;2.10;;;;;;;;;;5012250;28;20030;-62
2023/12/10 07:00:52;;;;;;;14.02;2.40;;;;;;;;;;5013293;28;20046;-62
2023/12/10 07:03:17;;;;;;;13.98;1.92;;;;;;;;;;5024340;28;20033;-61
2023/12/10 07:05:43;;;;;;;10.25;2.38;;;;;;;;;;5029188;28;20487;-62
2023/12/10 07:08:08;;;;;;;13.98;2.17;;;;;;;;;;5031631;28;20030;-63
2023/12/10 07:10:34;;;;;;;13.98;2.92;;;;;;;;;;5013882;28;20105;-64
2023/12/10 07:12:59;;;;;;;11.85;2.47;;;;;;;;;;5019190;28;20412;-65
2023/12/10 07:15:24;;;;;;;9.77;1.98;;;;;;;;;;5010865;28;20469;-65
2023/12/10 07:17:50;;;;;;;10.48;2.67;;;;;;;;;;5012558;28;20037;-65
2023/12/10 07:20:15;;;;;;;12.80;2.55;;;;;;;;;;5011363;28;20050;-61
2023/12/10 07:22:41;;;;;;;6.75;2.53;;;;;;;;;;5026975;28;20103;-64
2023/12/10 07:25:07;;;;;;;19.90;3.17;;;;;;;;;;5020204;28;20034;-62
2023/12/10 07:27:33;;;;;;;12.40;2.65;;;;;;;;;;5026716;28;20041;-61
2023/12/10 07:29:59;;;;;;;9.93;2.53;;;;;;;;;;5030330;28;20047;-63
2023/12/10 07:32:25;;;;;;;13.90;2.72;;;;;;;;;;5019688;28;20539;-62
2023/12/10 07:34:50;;;;;;;12.63;2.58;;;;;;;;;;5012124;28;20032;-62
2023/12/10 07:37:16;;;;;;;12.07;2.95;;;;;;;;;;5022677;28;20108;-61
2023/12/10 07:39:41;;;;;;;12.90;2.50;;;;;;;;;;5013452;28;20431;-64
2023/12/10 07:42:07;;;;;;;10.40;2.83;;;;;;;;;;5023497;28;20073;-63
2023/12/10 07:44:33;;;;;;;8.48;2.28;;;;;;;;;;5015360;28;20038;-63
2023/12/10 07:46:59;;;;;;;10.23;2.40;;;;;;;;;;5011835;28;20473;-63
2023/12/10 07:49:24;;;;;;;8.00;2.25;;;;;;;;;;5011097;28;20040;-62
2023/12/10 07:51:49;;;;;;;10.80;2.05;;;;;;;;;;5025323;28;20033;-63
2023/12/10 07:54:15;;;;;;;19.52;2.63;;;;;;;;;;5012748;28;20112;-63
2023/12/10 07:56:40;;;;;;;10.48;2.22;;;;;;;;;;5011302;28;20069;-62
2023/12/10 07:59:06;;;;;;;7.00;1.75;;;;;;;;;;5023808;28;20033;-63
2023/12/10 08:01:31;;;;;;;13.05;2.03;;;;;;;;;;5014287;28;20451;-63
2023/12/10 08:03:57;;;;;;;12.10;2.72;;;;;;;;;;5013595;28;20480;-63
2023/12/10 08:06:22;;;;;;;8.48;2.20;;;;;;;;;;5016122;28;20033;-63
2023/12/10 08:08:47;;;;;;;10.13;2.20;;;;;;;;;;5015341;28;20040;-62
2023/12/10 08:11:13;;;;;;;12.07;2.67;;;;;;;;;;5023473;28;20040;-62
2023/12/10 08:13:38;;;;;;;12.70;2.72;;;;;;;;;;5028445;28;20429;-62
2023/12/10 08:16:05;;;;;;;9.85;2.17;;;;;;;;;;5030576;28;20041;-63
2023/12/10 08:18:30;;;;;;;7.28;1.90;;;;;;;;;;5030195;28;20030;-62
2023/12/10 08:20:56;;;;;;;10.05;2.65;;;;;;;;;;5030749;28;20483;-63
2023/12/10 08:23:21;;;;;;;7.30;1.98;;;;;;;;;;5028452;28;20025;-61
2023/12/10 08:25:46;;;;;;;7.35;2.15;;;;;;;;;;5030394;28;20412;-62
2023/12/10 08:28:12;;;;;;;11.40;2.30;;;;;;;;;;5034926;28;20038;-63
2023/12/10 08:30:37;;;;;;;12.13;2.08;;;;;;;;;;5033498;28;20037;-62
2023/12/10 08:33:03;;;;;;;13.85;2.30;;;;;;;;;;5031998;28;20033;-64
2023/12/10 08:35:28;;;;;;;9.02;2.33;;;;;;;;;;5031161;28;20116;-63
2023/12/10 08:37:53;;;;;;;12.68;2.15;;;;;;;;;;5034257;28;20056;-61
2023/12/10 08:40:19;;;;;;;9.55;2.20;;;;;;;;;;5032855;28;20029;-61
2023/12/10 08:42:45;;;;;;;17.50;2.80;;;;;;;;;;5027212;28;20033;-62
2023/12/10 08:45:11;;;;;;;10.23;1.83;;;;;;;;;;5014399;28;20037;-62
2023/12/10 08:47:37;;;;;;;8.45;2.20;;;;;;;;;;5030164;28;20380;-62
2023/12/10 08:50:03;;;;;;;15.20;2.90;;;;;;;;;;5026667;28;20048;-62
2023/12/10 08:52:28;;;;;;;8.88;2.15;;;;;;;;;;5024557;28;20033;-62
2023/12/10 08:54:54;;;;;;;16.45;2.25;;;;;;;;;;5025799;28;20029;-62
2023/12/10 08:57:21;;;;;;;13.63;2.25;;;;;;;;;;5013003;28;20038;-61
2023/12/10 08:59:47;;;;;;;10.57;1.92;;;;;;;;;;5019220;28;20030;-64
2023/12/10 09:02:12;;;;;;;10.57;2.13;;;;;;;;;;5030620;28;20041;-61
2023/12/10 09:04:38;;;;;;;14.07;2.38;;;;;;;;;;5017500;28;20103;-62
2023/12/10 09:07:03;;;;;;;11.20;2.20;;;;;;;;;;5032276;28;20056;-62
2023/12/10 09:09:29;;;;;;;11.95;2.75;;;;;;;;;;5029842;28;20041;-61
2023/12/10 09:11:54;;;;;;;13.38;2.28;;;;;;;;;;5029765;28;20029;-61
2023/12/10 09:14:21;;;;;;;12.50;2.35;;;;;;;;;;5032254;28;20446;-61
2023/12/10 09:16:47;;;;;;;9.05;1.80;;;;;;;;;;5026970;28;20482;-61
2023/12/10 09:19:13;;;;;;;15.07;2.60;;;;;;;;;;5018406;28;20089;-63
2023/12/10 09:21:39;;;;;;;10.50;2.45;;;;;;;;;;5030266;28;20472;-62
2023/12/10 09:24:06;;;;;;;6.35;1.75;;;;;;;;;;5033216;28;20025;-62
2023/12/10 09:26:32;;;;;;;15.50;2.15;;;;;;;;;;5032439;28;20087;-63
2023/12/10 09:28:57;;;;;;;11.02;2.03;;;;;;;;;;5033062;28;20033;-62
2023/12/10 09:31:23;;;;;;;7.35;1.67;;;;;;;;;;5032827;28;20025;-61
2023/12/10 09:33:48;;;;;;;12.32;2.50;;;;;;;;;;5032864;28;20022;-64
2023/12/10 09:36:17;;;;;;;13.63;2.22;;;;;;;;;;5033046;28;20025;-62
2023/12/10 09:38:43;;;;;;;12.32;2.70;;;;;;;;;;5031414;28;20171;-62
2023/12/10 09:41:09;;;;;;;14.40;3.33;;;;;;;;;;5033251;28;20040;-62
2023/12/10 09:43:34;;;;;;;11.88;3.20;;;;;;;;;;5031746;28;20037;-61
2023/12/10 09:46:01;;;;;;;13.63;2.63;;;;;;;;;;5033255;28;20034;-62
2023/12/10 09:48:27;;;;;;;17.48;4.80;;;;;;;;;;5032403;28;20029;-60
2023/12/10 09:50:53;;;;;;;20.83;3.45;;;;;;;;;;5032971;28;20582;-62
2023/12/10 09:53:22;;;;;;;9.35;2.05;;;;;;;;;;5033157;28;20033;-63
2023/12/10 09:55:48;;;;;;;8.15;2.20;;;;;;;;;;5031668;28;20033;-63
2023/12/10 09:58:14;;;;;;;14.43;3.25;;;;;;;;;;5032490;28;20029;-63
2023/12/10 10:00:40;;;;;;;14.95;2.85;;;;;;;;;;5032112;28;20025;-62
2023/12/10 10:03:06;;;;;;;12.82;2.50;;;;;;;;;;5032838;28;20041;-63
2023/12/10 10:05:34;;;;;;;17.48;3.17;;;;;;;;;;5031954;28;20463;-61
2023/12/10 10:08:00;;;;;;;13.90;2.13;;;;;;;;;;5032804;28;20033;-63
2023/12/10 10:10:25;;;;;;;12.63;3.08;;;;;;;;;;5028247;28;20036;-61
2023/12/10 10:12:54;;;;;;;16.42;3.28;;;;;;;;;;5021118;28;20025;-62
2023/12/10 10:15:30;;;;;;;12.40;2.42;;;;;;;;;;5032740;28;20029;-64
2023/12/10 10:17:57;;;;;;;8.85;2.53;;;;;;;;;;5028528;28;20092;-63
2023/12/10 10:20:24;;;;;;;13.75;3.22;;;;;;;;;;5030375;28;20038;-63
2023/12/10 10:22:50;;;;;;;13.30;2.40;;;;;;;;;;5022540;28;20084;-63
2023/12/10 10:25:17;;;;;;;17.20;2.92;;;;;;;;;;5015258;28;20392;-64
2023/12/10 10:27:42;;;;;;;9.27;2.70;;;;;;;;;;5029811;28;20045;-63
2023/12/10 10:30:08;;;;;;;8.77;2.53;;;;;;;;;;5032418;28;20033;-63
2023/12/10 10:32:34;;;;;;;16.80;3.17;;;;;;;;;;5031289;28;20034;-63
2023/12/10 10:35:03;;;;;;;11.38;2.13;;;;;;;;;;5025041;28;20076;-63
2023/12/10 10:37:28;;;;;;;14.43;2.70;;;;;;;;;;5011617;28;20034;-61
2023/12/10 10:39:54;;;;;;;17.60;2.38;;;;;;;;;;5012281;28;20116;-63
2023/12/10 10:42:20;;;;;;;14.80;2.47;;;;;;;;;;5011163;28;20112;-62
2023/12/10 10:44:46;;;;;;;7.75;2.50;;;;;;;;;;5011526;28;20034;-63
2023/12/10 10:47:12;;;;;;;11.63;2.45;;;;;;;;;;5011635;28;20053;-63
2023/12/10 10:49:44;;;;;;;10.75;2.78;;;;;;;;;;5015870;28;20415;-64
2023/12/10 10:52:19;;;;;;;10.05;2.25;;;;;;;;;;5024135;28;20128;-65
2023/12/10 10:54:45;;;;;;;17.48;2.75;;;;;;;;;;5029525;28;20037;-64
2023/12/10 10:57:10;;;;;;;16.35;3.30;;;;;;;;;;5031439;28;20029;-63
2023/12/10 10:59:36;;;;;;;11.07;2.40;;;;;;;;;;5031018;28;20036;-63
2023/12/10 11:02:06;;;;;;;16.95;3.55;;;;;;;;;;5031645;28;20033;-62
2023/12/10 11:04:41;;;;;;;14.07;2.78;;;;;;;;;;5030863;28;20037;-62
2023/12/10 11:07:07;;;;;;;4.82;1.52;;;;;;;;;;5011761;28;20504;-63
2023/12/10 11:09:53;;;;;;;9.15;2.25;;;;;;;;;;5011331;28;20034;-63
2023/12/10 11:12:45;;;;;;;9.65;2.75;;;;;;;;;;5012206;28;20468;-65
2023/12/10 11:15:17;;;;;;;13.98;3.53;;;;;;;;;;5012040;28;20018;-63
2023/12/10 11:17:57;;;;;;;12.75;3.72;;;;;;;;;;5011044;28;20066;-63
2023/12/10 11:20:29;;;;;;;10.60;3.80;;;;;;;;;;5030413;28;20171;-63
2023/12/10 11:22:55;;;;;;;12.70;2.45;;;;;;;;;;5029457;28;20049;-61
2023/12/10 11:25:21;;;;;;;16.98;3.65;;;;;;;;;;5030125;28;20109;-62
2023/12/10 11:27:47;;;;;;;10.65;2.75;;;;;;;;;;5030794;28;20129;-61
2023/12/10 11:30:15;;;;;;;12.00;3.63;;;;;;;;;;5031927;28;20523;-63
2023/12/10 11:32:41;;;;;;;10.85;3.65;;;;;;;;;;5030262;28;20037;-64
2023/12/10 11:35:07;;;;;;;13.10;3.80;;;;;;;;;;5031593;28;20029;-63
2023/12/10 11:37:32;;;;;;;6.38;2.22;;;;;;;;;;5030863;28;20072;-60
2023/12/10 11:39:58;;;;;;;18.67;3.67;;;;;;;;;;5031076;28;20033;-64
2023/12/10 11:42:23;;;;;;;17.02;3.58;;;;;;;;;;5031311;28;20033;-62
2023/12/10 11:44:49;;;;;;;10.93;2.58;;;;;;;;;;5030334;28;20476;-62
2023/12/10 11:47:14;;;;;;;11.60;3.30;;;;;;;;;;5031340;28;20476;-63
2023/12/10 11:49:40;;;;;;;13.70;3.05;;;;;;;;;;5030499;28;20332;-62
2023/12/10 11:52:05;;;;;;;11.82;2.70;;;;;;;;;;5031432;28;20044;-63
2023/12/10 11:54:31;;;;;;;7.45;2.03;;;;;;;;;;5029196;28;20471;-60
2023/12/10 11:56:57;;;;;;;9.73;2.33;;;;;;;;;;5024272;28;20040;-63
2023/12/10 11:59:23;;;;;;;11.00;2.85;;;;;;;;;;5022952;28;20037;-62
2023/12/10 12:01:48;;;;;;;14.23;3.22;;;;;;;;;;5014411;28;20029;-62
2023/12/10 12:04:15;;;;;;;12.70;2.33;;;;;;;;;;5033062;28;20037;-63
2023/12/10 12:06:42;;;;;;;9.40;2.25;;;;;;;;;;5034315;28;20037;-63
2023/12/10 12:09:12;;;;;;;8.88;2.10;;;;;;;;;;5034692;28;20399;-63
2023/12/10 12:11:41;;;;;;;17.17;3.03;;;;;;;;;;5033873;28;20483;-62
2023/12/10 12:14:14;;;;;;;13.57;3.03;;;;;;;;;;5025547;28;20042;-63
2023/12/10 12:16:39;;;;;;;9.30;2.40;;;;;;;;;;5030213;28;20064;-62
2023/12/10 12:19:05;;;;;;;10.77;2.65;;;;;;;;;;5034630;28;20067;-62
2023/12/10 12:21:30;;;;;;;9.23;2.30;;;;;;;;;;5034815;28;20042;-63
2023/12/10 12:23:55;;;;;;;7.55;2.40;;;;;;;;;;5033840;28;20029;-63
2023/12/10 12:26:21;;;;;;;9.18;2.60;;;;;;;;;;5014916;28;20115;-63
2023/12/10 12:28:46;;;;;;;12.93;2.97;;;;;;;;;;5013866;28;20025;-63
2023/12/10 12:31:12;;;;;;;6.72;2.40;;;;;;;;;;5014859;28;20535;-64
2023/12/10 12:33:37;;;;;;;15.20;3.20;;;;;;;;;;5045680;28;20431;-61
2023/12/10 12:36:03;;;;;;;13.68;3.35;;;;;;;;;;5014754;28;20464;-63
2023/12/10 12:38:28;;;;;;;15.48;3.67;;;;;;;;;;5014389;28;20021;-63
2023/12/10 12:40:54;;;;;;;15.20;3.70;;;;;;;;;;5014616;28;20037;-63
2023/12/10 12:43:19;;;;;;;15.85;3.80;;;;;;;;;;5014398;28;20033;-63
2023/12/10 12:45:44;;;;;;;10.57;3.30;;;;;;;;;;5013461;28;20366;-64
2023/12/10 12:48:10;;;;;;;12.18;2.63;;;;;;;;;;5022208;28;20482;-63
2023/12/10 12:50:35;;;;;;;12.38;3.47;;;;;;;;;;5033840;28;20075;-62
2023/12/10 12:53:01;;;;;;;10.88;3.25;;;;;;;;;;5033680;28;20025;-63
2023/12/10 12:55:26;;;;;;;19.25;3.15;;;;;;;;;;5018963;28;20380;-64
2023/12/10 12:57:52;;;;;;;20.00;5.00;;;;;;;;;;5031673;28;20069;-63
2023/12/10 13:00:17;;;;;;;10.50;3.15;;;;;;;;;;5034039;28;20040;-63
2023/12/10 13:02:43;;;;;;;15.13;3.50;;;;;;;;;;5033009;28;20079;-63
2023/12/10 13:05:09;;;;;;;14.70;3.53;;;;;;;;;;5033946;28;20442;-64
2023/12/10 13:07:34;;;;;;;18.48;3.13;;;;;;;;;;5049028;28;20038;-61
2023/12/10 13:10:00;;;;;;;13.18;3.47;;;;;;;;;;5031395;28;20035;-64
2023/12/10 13:12:25;;;;;;;7.80;2.33;;;;;;;;;;5033498;28;20369;-63
2023/12/10 13:14:53;;;;;;;16.88;3.65;;;;;;;;;;5032753;28;20030;-65
2023/12/10 13:17:18;;;;;;;15.40;3.13;;;;;;;;;;5033733;28;20033;-64
2023/12/10 13:19:44;;;;;;;13.27;2.50;;;;;;;;;;5032966;28;20503;-63
2023/12/10 13:22:10;;;;;;;9.13;2.60;;;;;;;;;;5033798;28;20034;-63
2023/12/10 13:24:36;;;;;;;13.80;3.22;;;;;;;;;;5025186;28;20141;-60
2023/12/10 13:27:02;;;;;;;10.13;2.67;;;;;;;;;;5013476;28;20026;-63
2023/12/10 13:29:28;;;;;;;22.67;3.50;;;;;;;;;;5012637;28;20042;-63
2023/12/10 13:31:53;;;;;;;14.23;3.05;;;;;;;;;;5012884;28;20053;-63
2023/12/10 13:34:19;;;;;;;10.02;2.50;;;;;;;;;;5013661;28;20029;-63
2023/12/10 13:36:45;;;;;;;12.43;2.92;;;;;;;;;;5011463;28;20048;-63
2023/12/10 13:39:11;;;;;;;15.52;4.28;;;;;;;;;;5013979;28;20379;-63
2023/12/10 13:41:36;;;;;;;14.55;3.88;;;;;;;;;;5023433;28;20033;-60
2023/12/10 13:44:02;;;;;;;16.70;4.13;;;;;;;;;;5032465;28;20037;-64
2023/12/10 13:46:27;;;;;;;18.05;3.90;;;;;;;;;;5033228;28;20060;-65
2023/12/10 13:48:53;;;;;;;19.63;4.47;;;;;;;;;;5032463;28;20077;-63
2023/12/10 13:51:19;;;;;;;10.73;3.08;;;;;;;;;;5033248;28;20371;-63
2023/12/10 13:53:45;;;;;;;23.63;4.25;;;;;;;;;;5031886;28;20317;-63
2023/12/10 13:56:10;;;;;;;12.90;3.92;;;;;;;;;;5022445;28;20159;-63
2023/12/10 13:58:38;;;;;;;18.10;4.65;;;;;;;;;;5019137;28;20026;-65
2023/12/10 14:01:06;;;;;;;20.00;4.20;;;;;;;;;;5031761;28;20025;-64
2023/12/10 14:03:32;;;;;;;14.82;3.97;;;;;;;;;;5032259;28;20037;-64
2023/12/10 14:05:58;;;;;;;18.65;4.32;;;;;;;;;;5031982;28;20163;-63
2023/12/10 14:08:23;;;;;;;20.38;4.03;;;;;;;;;;5031233;28;20030;-64
2023/12/10 14:10:49;;;;;;;20.10;4.35;;;;;;;;;;5022846;28;20415;-62
2023/12/10 14:13:14;;;;;;;24.58;4.70;;;;;;;;;;5031965;28;20140;-62
2023/12/10 14:15:40;;;;;;;22.50;3.72;;;;;;;;;;5031788;28;20033;-60
2023/12/10 14:18:05;;;;;;;19.75;4.70;;;;;;;;;;5032524;28;20049;-62
2023/12/10 14:20:31;;;;;;;23.17;4.15;;;;;;;;;;5032379;28;20478;-63
2023/12/10 14:22:57;;;;;;;24.67;4.28;;;;;;;;;;5029628;28;20034;-62